sensor_id;sensor_type;location;lat;lon;timestamp;P1;durP1;ratioP1;P2;durP2;ratioP2
20067;SDS011;10194;50.824;7.134;2023-11-21T00:01:58;59.57;;;48.47;;
20067;SDS011;10194;50.824;7.134;2023-11-21T00:04:24;58.43;;;48.27;;
20067;SDS011;10194;50.824;7.134;2023-11-21T00:06:53;61.53;;;49.47;;
20067;SDS011;10194;50.824;7.134;2023-11-21T00:09:19;58.63;;;48.33;;
20067;SDS011;10194;50.824;7.134;2023-11-21T00:11:45;58.83;;;48.37;;
20067;SDS011;10194;50.824;7.134;2023-11-21T00:14:11;59.93;;;49.17;;
20067;SDS011;10194;50.824;7.134;2023-11-21T00:16:37;69.37;;;52.90;;
20067;SDS011;10194;50.824;7.134;2023-11-21T00:19:03;58.40;;;48.13;;
20067;SDS011;10194;50.824;7.134;2023-11-21T00:21:28;58.60;;;48.37;;
20067;SDS011;10194;50.824;7.134;2023-11-21T00:23:54;58.43;;;48.03;;
20067;SDS011;10194;50.824;7.134;2023-11-21T00:26:20;57.63;;;47.87;;
20067;SDS011;10194;50.824;7.134;2023-11-21T00:28:46;57.70;;;47.70;;
20067;SDS011;10194;50.824;7.134;2023-11-21T00:31:11;58.67;;;48.17;;
20067;SDS011;10194;50.824;7.134;2023-11-21T00:33:37;57.87;;;47.97;;
20067;SDS011;10194;50.824;7.134;2023-11-21T00:36:03;58.70;;;48.33;;
20067;SDS011;10194;50.824;7.134;2023-11-21T00:38:32;57.60;;;47.80;;
20067;SDS011;10194;50.824;7.134;2023-11-21T00:40:58;59.63;;;48.57;;
20067;SDS011;10194;50.824;7.134;2023-11-21T00:43:24;59.20;;;48.43;;
20067;SDS011;10194;50.824;7.134;2023-11-21T00:45:56;57.20;;;47.60;;
20067;SDS011;10194;50.824;7.134;2023-11-21T00:48:22;57.40;;;47.67;;
20067;SDS011;10194;50.824;7.134;2023-11-21T00:50:51;57.40;;;47.83;;
20067;SDS011;10194;50.824;7.134;2023-11-21T00:53:17;58.47;;;48.23;;
20067;SDS011;10194;50.824;7.134;2023-11-21T00:55:43;58.37;;;48.23;;
20067;SDS011;10194;50.824;7.134;2023-11-21T00:58:09;58.17;;;48.00;;
20067;SDS011;10194;50.824;7.134;2023-11-21T01:00:35;58.30;;;48.17;;
20067;SDS011;10194;50.824;7.134;2023-11-21T01:03:04;57.70;;;47.90;;
20067;SDS011;10194;50.824;7.134;2023-11-21T01:05:30;57.67;;;47.70;;
20067;SDS011;10194;50.824;7.134;2023-11-21T01:07:56;64.87;;;50.37;;
20067;SDS011;10194;50.824;7.134;2023-11-21T01:10:21;57.43;;;47.67;;
20067;SDS011;10194;50.824;7.134;2023-11-21T01:12:47;58.23;;;47.73;;
20067;SDS011;10194;50.824;7.134;2023-11-21T01:15:13;57.83;;;47.77;;
20067;SDS011;10194;50.824;7.134;2023-11-21T01:17:40;60.63;;;48.70;;
20067;SDS011;10194;50.824;7.134;2023-11-21T01:20:06;57.93;;;47.80;;
20067;SDS011;10194;50.824;7.134;2023-11-21T01:22:36;58.97;;;48.47;;
20067;SDS011;10194;50.824;7.134;2023-11-21T01:25:02;57.33;;;47.50;;
20067;SDS011;10194;50.824;7.134;2023-11-21T01:27:32;58.03;;;47.90;;
20067;SDS011;10194;50.824;7.134;2023-11-21T01:29:59;57.27;;;47.53;;
20067;SDS011;10194;50.824;7.134;2023-11-21T01:32:26;62.27;;;49.53;;
20067;SDS011;10194;50.824;7.134;2023-11-21T01:34:51;57.63;;;47.57;;
20067;SDS011;10194;50.824;7.134;2023-11-21T01:37:17;57.30;;;47.43;;
20067;SDS011;10194;50.824;7.134;2023-11-21T01:39:43;57.40;;;47.60;;
20067;SDS011;10194;50.824;7.134;2023-11-21T01:42:09;58.10;;;48.17;;
20067;SDS011;10194;50.824;7.134;2023-11-21T01:44:37;57.77;;;47.83;;
20067;SDS011;10194;50.824;7.134;2023-11-21T01:47:05;66.20;;;50.90;;
20067;SDS011;10194;50.824;7.134;2023-11-21T01:49:34;57.00;;;47.40;;
20067;SDS011;10194;50.824;7.134;2023-11-21T01:52:01;57.10;;;47.47;;
20067;SDS011;10194;50.824;7.134;2023-11-21T01:54:29;57.00;;;47.47;;
20067;SDS011;10194;50.824;7.134;2023-11-21T01:57:00;62.33;;;49.50;;
20067;SDS011;10194;50.824;7.134;2023-11-21T01:59:37;57.10;;;47.40;;
20067;SDS011;10194;50.824;7.134;2023-11-21T02:02:07;57.50;;;47.57;;
20067;SDS011;10194;50.824;7.134;2023-11-21T02:04:34;57.47;;;47.60;;
20067;SDS011;10194;50.824;7.134;2023-11-21T02:07:04;65.37;;;50.40;;
20067;SDS011;10194;50.824;7.134;2023-11-21T02:09:32;56.87;;;47.37;;
20067;SDS011;10194;50.824;7.134;2023-11-21T02:11:59;57.03;;;47.50;;
20067;SDS011;10194;50.824;7.134;2023-11-21T02:14:28;56.80;;;47.30;;
20067;SDS011;10194;50.824;7.134;2023-11-21T02:16:54;60.17;;;48.57;;
20067;SDS011;10194;50.824;7.134;2023-11-21T02:19:22;57.00;;;47.40;;
20067;SDS011;10194;50.824;7.134;2023-11-21T02:21:50;56.83;;;47.37;;
20067;SDS011;10194;50.824;7.134;2023-11-21T02:24:21;58.97;;;48.37;;
20067;SDS011;10194;50.824;7.134;2023-11-21T02:26:50;57.13;;;47.47;;
20067;SDS011;10194;50.824;7.134;2023-11-21T02:29:19;56.67;;;47.20;;
20067;SDS011;10194;50.824;7.134;2023-11-21T02:31:52;56.87;;;47.17;;
20067;SDS011;10194;50.824;7.134;2023-11-21T02:34:20;57.00;;;47.47;;
20067;SDS011;10194;50.824;7.134;2023-11-21T02:36:47;56.70;;;47.23;;
20067;SDS011;10194;50.824;7.134;2023-11-21T02:39:16;56.60;;;47.20;;
20067;SDS011;10194;50.824;7.134;2023-11-21T02:41:43;56.70;;;47.10;;
20067;SDS011;10194;50.824;7.134;2023-11-21T02:44:10;56.47;;;47.10;;
20067;SDS011;10194;50.824;7.134;2023-11-21T02:46:36;59.13;;;48.50;;
20067;SDS011;10194;50.824;7.134;2023-11-21T02:49:05;56.47;;;47.10;;
20067;SDS011;10194;50.824;7.134;2023-11-21T02:51:32;56.30;;;47.03;;
20067;SDS011;10194;50.824;7.134;2023-11-21T02:53:58;56.20;;;46.80;;
20067;SDS011;10194;50.824;7.134;2023-11-21T02:56:26;59.23;;;48.40;;
20067;SDS011;10194;50.824;7.134;2023-11-21T02:58:52;56.07;;;46.83;;
20067;SDS011;10194;50.824;7.134;2023-11-21T03:01:20;56.40;;;46.87;;
20067;SDS011;10194;50.824;7.134;2023-11-21T03:03:46;56.10;;;46.90;;
20067;SDS011;10194;50.824;7.134;2023-11-21T03:06:12;56.00;;;46.70;;
20067;SDS011;10194;50.824;7.134;2023-11-21T03:08:38;56.53;;;46.97;;
20067;SDS011;10194;50.824;7.134;2023-11-21T03:11:04;56.20;;;46.90;;
20067;SDS011;10194;50.824;7.134;2023-11-21T03:13:30;56.13;;;46.83;;
20067;SDS011;10194;50.824;7.134;2023-11-21T03:15:55;56.00;;;46.83;;
20067;SDS011;10194;50.824;7.134;2023-11-21T03:18:21;57.03;;;47.37;;
20067;SDS011;10194;50.824;7.134;2023-11-21T03:20:47;57.13;;;47.40;;
20067;SDS011;10194;50.824;7.134;2023-11-21T03:23:13;56.57;;;47.30;;
20067;SDS011;10194;50.824;7.134;2023-11-21T03:25:40;58.80;;;47.97;;
20067;SDS011;10194;50.824;7.134;2023-11-21T03:28:05;56.50;;;47.07;;
20067;SDS011;10194;50.824;7.134;2023-11-21T03:30:33;56.73;;;47.20;;
20067;SDS011;10194;50.824;7.134;2023-11-21T03:32:59;57.17;;;47.50;;
20067;SDS011;10194;50.824;7.134;2023-11-21T03:35:24;56.60;;;47.17;;
20067;SDS011;10194;50.824;7.134;2023-11-21T03:37:51;57.10;;;47.50;;
20067;SDS011;10194;50.824;7.134;2023-11-21T03:40:17;57.77;;;47.87;;
20067;SDS011;10194;50.824;7.134;2023-11-21T03:42:42;57.30;;;47.53;;
20067;SDS011;10194;50.824;7.134;2023-11-21T03:45:08;57.00;;;47.43;;
20067;SDS011;10194;50.824;7.134;2023-11-21T03:47:34;56.80;;;47.30;;
20067;SDS011;10194;50.824;7.134;2023-11-21T03:50:00;56.70;;;47.17;;
20067;SDS011;10194;50.824;7.134;2023-11-21T03:52:26;56.80;;;47.37;;
20067;SDS011;10194;50.824;7.134;2023-11-21T03:54:53;57.10;;;47.30;;
20067;SDS011;10194;50.824;7.134;2023-11-21T03:57:20;57.00;;;47.50;;
20067;SDS011;10194;50.824;7.134;2023-11-21T03:59:46;57.00;;;47.50;;
20067;SDS011;10194;50.824;7.134;2023-11-21T04:02:12;57.30;;;47.67;;
20067;SDS011;10194;50.824;7.134;2023-11-21T04:04:38;57.73;;;47.87;;
20067;SDS011;10194;50.824;7.134;2023-11-21T04:07:04;65.50;;;50.47;;
20067;SDS011;10194;50.824;7.134;2023-11-21T04:09:30;57.53;;;47.80;;
20067;SDS011;10194;50.824;7.134;2023-11-21T04:11:56;59.40;;;48.27;;
20067;SDS011;10194;50.824;7.134;2023-11-21T04:14:22;57.23;;;47.60;;
20067;SDS011;10194;50.824;7.134;2023-11-21T04:16:48;57.53;;;47.60;;
20067;SDS011;10194;50.824;7.134;2023-11-21T04:19:14;57.57;;;47.83;;
20067;SDS011;10194;50.824;7.134;2023-11-21T04:21:40;57.67;;;47.80;;
20067;SDS011;10194;50.824;7.134;2023-11-21T04:24:07;57.10;;;47.50;;
20067;SDS011;10194;50.824;7.134;2023-11-21T04:26:33;66.00;;;51.33;;
20067;SDS011;10194;50.824;7.134;2023-11-21T04:28:59;57.40;;;47.80;;
20067;SDS011;10194;50.824;7.134;2023-11-21T04:31:24;64.87;;;50.57;;
20067;SDS011;10194;50.824;7.134;2023-11-21T04:33:50;57.40;;;47.57;;
20067;SDS011;10194;50.824;7.134;2023-11-21T04:36:16;57.37;;;47.70;;
20067;SDS011;10194;50.824;7.134;2023-11-21T04:38:42;57.60;;;47.90;;
20067;SDS011;10194;50.824;7.134;2023-11-21T04:41:08;57.60;;;47.70;;
20067;SDS011;10194;50.824;7.134;2023-11-21T04:43:34;57.93;;;47.83;;
20067;SDS011;10194;50.824;7.134;2023-11-21T04:46:00;57.20;;;47.60;;
20067;SDS011;10194;50.824;7.134;2023-11-21T04:48:27;57.97;;;47.87;;
20067;SDS011;10194;50.824;7.134;2023-11-21T04:50:53;57.80;;;47.90;;
20067;SDS011;10194;50.824;7.134;2023-11-21T04:53:18;57.13;;;47.57;;
20067;SDS011;10194;50.824;7.134;2023-11-21T04:55:44;62.10;;;49.60;;
20067;SDS011;10194;50.824;7.134;2023-11-21T04:58:11;57.47;;;47.67;;
20067;SDS011;10194;50.824;7.134;2023-11-21T05:00:37;57.73;;;47.80;;
20067;SDS011;10194;50.824;7.134;2023-11-21T05:03:03;57.53;;;47.77;;
20067;SDS011;10194;50.824;7.134;2023-11-21T05:05:30;57.17;;;47.50;;
20067;SDS011;10194;50.824;7.134;2023-11-21T05:07:56;57.20;;;47.60;;
20067;SDS011;10194;50.824;7.134;2023-11-21T05:10:21;57.20;;;47.50;;
20067;SDS011;10194;50.824;7.134;2023-11-21T05:12:47;57.80;;;47.93;;
20067;SDS011;10194;50.824;7.134;2023-11-21T05:15:15;57.57;;;47.77;;
20067;SDS011;10194;50.824;7.134;2023-11-21T05:17:44;57.17;;;47.50;;
20067;SDS011;10194;50.824;7.134;2023-11-21T05:20:11;57.37;;;47.67;;
20067;SDS011;10194;50.824;7.134;2023-11-21T05:22:39;57.20;;;47.50;;
20067;SDS011;10194;50.824;7.134;2023-11-21T05:25:05;57.60;;;47.70;;
20067;SDS011;10194;50.824;7.134;2023-11-21T05:27:33;57.27;;;47.80;;
20067;SDS011;10194;50.824;7.134;2023-11-21T05:30:00;57.30;;;47.70;;
20067;SDS011;10194;50.824;7.134;2023-11-21T05:32:30;57.73;;;47.80;;
20067;SDS011;10194;50.824;7.134;2023-11-21T05:34:56;57.40;;;47.60;;
20067;SDS011;10194;50.824;7.134;2023-11-21T05:37:22;57.40;;;47.70;;
20067;SDS011;10194;50.824;7.134;2023-11-21T05:39:48;57.53;;;47.87;;
20067;SDS011;10194;50.824;7.134;2023-11-21T05:42:14;57.50;;;47.70;;
20067;SDS011;10194;50.824;7.134;2023-11-21T05:44:41;57.77;;;47.80;;
20067;SDS011;10194;50.824;7.134;2023-11-21T05:47:10;58.23;;;47.97;;
20067;SDS011;10194;50.824;7.134;2023-11-21T05:49:38;57.40;;;47.70;;
20067;SDS011;10194;50.824;7.134;2023-11-21T05:52:04;58.27;;;48.10;;
20067;SDS011;10194;50.824;7.134;2023-11-21T05:54:30;57.20;;;47.50;;
20067;SDS011;10194;50.824;7.134;2023-11-21T05:56:57;62.07;;;49.47;;
20067;SDS011;10194;50.824;7.134;2023-11-21T05:59:23;57.10;;;47.50;;
20067;SDS011;10194;50.824;7.134;2023-11-21T06:01:49;57.00;;;47.50;;
20067;SDS011;10194;50.824;7.134;2023-11-21T06:04:15;57.30;;;47.70;;
20067;SDS011;10194;50.824;7.134;2023-11-21T06:06:41;58.17;;;48.13;;
20067;SDS011;10194;50.824;7.134;2023-11-21T06:09:06;57.63;;;47.80;;
20067;SDS011;10194;50.824;7.134;2023-11-21T06:11:34;57.37;;;47.70;;
20067;SDS011;10194;50.824;7.134;2023-11-21T06:14:01;62.10;;;49.43;;
20067;SDS011;10194;50.824;7.134;2023-11-21T06:16:27;63.40;;;50.37;;
20067;SDS011;10194;50.824;7.134;2023-11-21T06:18:54;57.20;;;47.57;;
20067;SDS011;10194;50.824;7.134;2023-11-21T06:21:19;57.27;;;47.60;;
20067;SDS011;10194;50.824;7.134;2023-11-21T06:23:45;57.27;;;47.47;;
20067;SDS011;10194;50.824;7.134;2023-11-21T06:26:11;57.17;;;47.57;;
20067;SDS011;10194;50.824;7.134;2023-11-21T06:28:37;57.47;;;47.67;;
20067;SDS011;10194;50.824;7.134;2023-11-21T06:31:03;57.50;;;47.80;;
20067;SDS011;10194;50.824;7.134;2023-11-21T06:33:31;58.23;;;48.23;;
20067;SDS011;10194;50.824;7.134;2023-11-21T06:35:57;57.80;;;47.90;;
20067;SDS011;10194;50.824;7.134;2023-11-21T06:38:23;58.17;;;48.17;;
20067;SDS011;10194;50.824;7.134;2023-11-21T06:40:49;59.63;;;48.67;;
20067;SDS011;10194;50.824;7.134;2023-11-21T06:43:15;58.00;;;48.07;;
20067;SDS011;10194;50.824;7.134;2023-11-21T06:45:40;60.63;;;49.17;;
20067;SDS011;10194;50.824;7.134;2023-11-21T06:48:06;57.43;;;47.80;;
20067;SDS011;10194;50.824;7.134;2023-11-21T06:50:32;57.60;;;47.87;;
20067;SDS011;10194;50.824;7.134;2023-11-21T06:52:58;57.47;;;47.63;;
20067;SDS011;10194;50.824;7.134;2023-11-21T06:55:23;57.60;;;47.77;;
20067;SDS011;10194;50.824;7.134;2023-11-21T06:57:49;57.77;;;47.93;;
20067;SDS011;10194;50.824;7.134;2023-11-21T07:00:17;58.53;;;48.27;;
20067;SDS011;10194;50.824;7.134;2023-11-21T07:02:43;58.10;;;48.00;;
20067;SDS011;10194;50.824;7.134;2023-11-21T07:05:09;58.27;;;48.10;;
20067;SDS011;10194;50.824;7.134;2023-11-21T07:07:36;57.60;;;47.80;;
20067;SDS011;10194;50.824;7.134;2023-11-21T07:10:02;57.60;;;47.80;;
20067;SDS011;10194;50.824;7.134;2023-11-21T07:12:30;57.83;;;48.00;;
20067;SDS011;10194;50.824;7.134;2023-11-21T07:14:56;57.87;;;47.97;;
20067;SDS011;10194;50.824;7.134;2023-11-21T07:17:23;57.87;;;47.93;;
20067;SDS011;10194;50.824;7.134;2023-11-21T07:19:49;57.83;;;47.80;;
20067;SDS011;10194;50.824;7.134;2023-11-21T07:22:15;58.83;;;48.40;;
20067;SDS011;10194;50.824;7.134;2023-11-21T07:24:48;58.20;;;48.30;;
20067;SDS011;10194;50.824;7.134;2023-11-21T07:27:17;58.03;;;48.13;;
20067;SDS011;10194;50.824;7.134;2023-11-21T07:29:43;58.37;;;48.23;;
20067;SDS011;10194;50.824;7.134;2023-11-21T07:32:09;58.10;;;48.20;;
20067;SDS011;10194;50.824;7.134;2023-11-21T07:34:36;58.53;;;48.47;;
20067;SDS011;10194;50.824;7.134;2023-11-21T07:37:02;65.17;;;50.73;;
20067;SDS011;10194;50.824;7.134;2023-11-21T07:39:28;58.00;;;48.10;;
20067;SDS011;10194;50.824;7.134;2023-11-21T07:41:55;59.83;;;49.07;;
20067;SDS011;10194;50.824;7.134;2023-11-21T07:44:22;57.80;;;48.00;;
20067;SDS011;10194;50.824;7.134;2023-11-21T07:46:48;59.37;;;48.70;;
20067;SDS011;10194;50.824;7.134;2023-11-21T07:49:17;58.00;;;48.10;;
20067;SDS011;10194;50.824;7.134;2023-11-21T07:51:45;62.07;;;49.67;;
20067;SDS011;10194;50.824;7.134;2023-11-21T07:54:11;58.13;;;48.17;;
20067;SDS011;10194;50.824;7.134;2023-11-21T07:56:37;61.13;;;50.00;;
20067;SDS011;10194;50.824;7.134;2023-11-21T07:59:03;58.37;;;48.37;;
20067;SDS011;10194;50.824;7.134;2023-11-21T08:01:29;58.23;;;48.23;;
20067;SDS011;10194;50.824;7.134;2023-11-21T08:03:55;58.73;;;48.50;;
20067;SDS011;10194;50.824;7.134;2023-11-21T08:06:24;61.23;;;49.90;;
20067;SDS011;10194;50.824;7.134;2023-11-21T08:08:50;58.20;;;48.40;;
20067;SDS011;10194;50.824;7.134;2023-11-21T08:11:16;58.47;;;48.40;;
20067;SDS011;10194;50.824;7.134;2023-11-21T08:13:42;58.33;;;48.40;;
20067;SDS011;10194;50.824;7.134;2023-11-21T08:16:08;58.77;;;48.60;;
20067;SDS011;10194;50.824;7.134;2023-11-21T08:18:33;58.43;;;48.47;;
20067;SDS011;10194;50.824;7.134;2023-11-21T08:21:00;59.30;;;49.07;;
20067;SDS011;10194;50.824;7.134;2023-11-21T08:23:26;58.93;;;48.90;;
20067;SDS011;10194;50.824;7.134;2023-11-21T08:25:52;59.83;;;49.43;;
20067;SDS011;10194;50.824;7.134;2023-11-21T08:28:18;58.80;;;48.70;;
20067;SDS011;10194;50.824;7.134;2023-11-21T08:30:50;60.63;;;49.67;;
20067;SDS011;10194;50.824;7.134;2023-11-21T08:33:17;59.07;;;48.80;;
20067;SDS011;10194;50.824;7.134;2023-11-21T08:35:44;60.27;;;49.57;;
20067;SDS011;10194;50.824;7.134;2023-11-21T08:38:10;59.90;;;49.37;;
20067;SDS011;10194;50.824;7.134;2023-11-21T08:40:37;59.33;;;49.17;;
20067;SDS011;10194;50.824;7.134;2023-11-21T08:43:03;60.20;;;49.60;;
20067;SDS011;10194;50.824;7.134;2023-11-21T08:45:30;59.10;;;48.83;;
20067;SDS011;10194;50.824;7.134;2023-11-21T08:47:56;59.40;;;49.10;;
20067;SDS011;10194;50.824;7.134;2023-11-21T08:50:21;59.73;;;49.30;;
20067;SDS011;10194;50.824;7.134;2023-11-21T08:52:48;60.00;;;49.33;;
20067;SDS011;10194;50.824;7.134;2023-11-21T08:55:14;61.73;;;50.20;;
20067;SDS011;10194;50.824;7.134;2023-11-21T08:57:40;62.93;;;50.77;;
20067;SDS011;10194;50.824;7.134;2023-11-21T09:00:09;66.93;;;52.33;;
20067;SDS011;10194;50.824;7.134;2023-11-21T09:02:40;59.77;;;49.57;;
20067;SDS011;10194;50.824;7.134;2023-11-21T09:05:07;64.97;;;51.37;;
20067;SDS011;10194;50.824;7.134;2023-11-21T09:07:35;59.60;;;49.40;;
20067;SDS011;10194;50.824;7.134;2023-11-21T09:10:05;59.73;;;49.57;;
20067;SDS011;10194;50.824;7.134;2023-11-21T09:12:34;67.27;;;52.30;;
20067;SDS011;10194;50.824;7.134;2023-11-21T09:15:07;61.50;;;50.17;;
20067;SDS011;10194;50.824;7.134;2023-11-21T09:17:34;59.40;;;49.13;;
20067;SDS011;10194;50.824;7.134;2023-11-21T09:20:00;59.23;;;49.07;;
20067;SDS011;10194;50.824;7.134;2023-11-21T09:22:28;59.50;;;49.40;;
20067;SDS011;10194;50.824;7.134;2023-11-21T09:24:55;59.77;;;49.47;;
20067;SDS011;10194;50.824;7.134;2023-11-21T09:27:22;59.83;;;49.47;;
20067;SDS011;10194;50.824;7.134;2023-11-21T09:29:48;59.67;;;49.37;;
20067;SDS011;10194;50.824;7.134;2023-11-21T09:32:14;62.07;;;50.50;;
20067;SDS011;10194;50.824;7.134;2023-11-21T09:34:43;59.53;;;49.17;;
20067;SDS011;10194;50.824;7.134;2023-11-21T09:37:09;66.30;;;51.90;;
20067;SDS011;10194;50.824;7.134;2023-11-21T09:39:35;60.47;;;49.70;;
20067;SDS011;10194;50.824;7.134;2023-11-21T09:42:13;62.80;;;50.60;;
20067;SDS011;10194;50.824;7.134;2023-11-21T09:44:48;59.87;;;49.43;;
20067;SDS011;10194;50.824;7.134;2023-11-21T09:47:26;61.23;;;50.00;;
20067;SDS011;10194;50.824;7.134;2023-11-21T09:49:53;60.70;;;49.70;;
20067;SDS011;10194;50.824;7.134;2023-11-21T09:52:28;60.10;;;49.57;;
20067;SDS011;10194;50.824;7.134;2023-11-21T09:54:54;59.77;;;49.47;;
20067;SDS011;10194;50.824;7.134;2023-11-21T09:57:24;59.40;;;49.20;;
20067;SDS011;10194;50.824;7.134;2023-11-21T09:59:51;59.57;;;49.27;;
20067;SDS011;10194;50.824;7.134;2023-11-21T10:02:27;64.50;;;51.27;;
20067;SDS011;10194;50.824;7.134;2023-11-21T10:04:55;59.00;;;48.70;;
20067;SDS011;10194;50.824;7.134;2023-11-21T10:07:21;64.47;;;51.13;;
20067;SDS011;10194;50.824;7.134;2023-11-21T10:09:48;61.63;;;49.97;;
20067;SDS011;10194;50.824;7.134;2023-11-21T10:12:16;59.67;;;49.27;;
20067;SDS011;10194;50.824;7.134;2023-11-21T10:14:43;62.50;;;50.53;;
20067;SDS011;10194;50.824;7.134;2023-11-21T10:17:13;65.53;;;51.77;;
20067;SDS011;10194;50.824;7.134;2023-11-21T10:19:46;63.07;;;50.80;;
20067;SDS011;10194;50.824;7.134;2023-11-21T10:22:16;64.83;;;51.50;;
20067;SDS011;10194;50.824;7.134;2023-11-21T10:24:44;59.73;;;49.43;;
20067;SDS011;10194;50.824;7.134;2023-11-21T10:27:10;59.50;;;49.33;;
20067;SDS011;10194;50.824;7.134;2023-11-21T10:29:36;63.43;;;50.87;;
20067;SDS011;10194;50.824;7.134;2023-11-21T10:32:02;60.20;;;50.03;;
20067;SDS011;10194;50.824;7.134;2023-11-21T10:34:30;60.10;;;49.70;;
20067;SDS011;10194;50.824;7.134;2023-11-21T10:36:57;65.73;;;52.13;;
20067;SDS011;10194;50.824;7.134;2023-11-21T10:39:23;60.33;;;50.03;;
20067;SDS011;10194;50.824;7.134;2023-11-21T10:41:54;66.63;;;52.27;;
20067;SDS011;10194;50.824;7.134;2023-11-21T10:44:25;68.30;;;56.30;;
20067;SDS011;10194;50.824;7.134;2023-11-21T10:46:52;69.60;;;56.50;;
20067;SDS011;10194;50.824;7.134;2023-11-21T10:49:22;67.40;;;55.87;;
20067;SDS011;10194;50.824;7.134;2023-11-21T10:51:55;69.70;;;56.77;;
20067;SDS011;10194;50.824;7.134;2023-11-21T10:54:25;67.20;;;54.00;;
20067;SDS011;10194;50.824;7.134;2023-11-21T10:56:53;72.60;;;56.90;;
20067;SDS011;10194;50.824;7.134;2023-11-21T10:59:25;69.27;;;56.53;;
20067;SDS011;10194;50.824;7.134;2023-11-21T11:01:54;65.27;;;55.07;;
20067;SDS011;10194;50.824;7.134;2023-11-21T11:04:50;64.13;;;54.20;;
20067;SDS011;10194;50.824;7.134;2023-11-21T11:07:21;69.33;;;56.80;;
20067;SDS011;10194;50.824;7.134;2023-11-21T11:09:56;67.90;;;56.33;;
20067;SDS011;10194;50.824;7.134;2023-11-21T11:12:33;67.57;;;56.10;;
20067;SDS011;10194;50.824;7.134;2023-11-21T11:15:01;69.03;;;56.07;;
20067;SDS011;10194;50.824;7.134;2023-11-21T11:17:37;62.07;;;50.87;;
20067;SDS011;10194;50.824;7.134;2023-11-21T11:20:04;64.83;;;51.20;;
20067;SDS011;10194;50.824;7.134;2023-11-21T11:32:18;60.07;;;49.50;;
20067;SDS011;10194;50.824;7.134;2023-11-21T11:35:19;64.60;;;50.93;;
20067;SDS011;10194;50.824;7.134;2023-11-21T11:38:21;63.17;;;50.30;;
20067;SDS011;10194;50.824;7.134;2023-11-21T11:40:48;59.60;;;49.20;;
20067;SDS011;10194;50.824;7.134;2023-11-21T11:43:25;63.90;;;51.50;;
20067;SDS011;10194;50.824;7.134;2023-11-21T11:45:56;67.77;;;52.30;;
20067;SDS011;10194;50.824;7.134;2023-11-21T11:48:28;59.20;;;48.90;;
20067;SDS011;10194;50.824;7.134;2023-11-21T11:51:01;67.10;;;52.17;;
20067;SDS011;10194;50.824;7.134;2023-11-21T11:53:47;60.97;;;49.70;;
20067;SDS011;10194;50.824;7.134;2023-11-21T11:56:23;66.67;;;52.10;;
20067;SDS011;10194;50.824;7.134;2023-11-21T11:58:59;66.57;;;52.03;;
20067;SDS011;10194;50.824;7.134;2023-11-21T12:01:28;64.20;;;50.87;;
20067;SDS011;10194;50.824;7.134;2023-11-21T12:06:42;59.27;;;49.23;;
20067;SDS011;10194;50.824;7.134;2023-11-21T12:09:22;59.13;;;48.77;;
20067;SDS011;10194;50.824;7.134;2023-11-21T12:11:48;60.63;;;49.73;;
20067;SDS011;10194;50.824;7.134;2023-11-21T12:14:15;64.50;;;51.37;;
20067;SDS011;10194;50.824;7.134;2023-11-21T12:16:42;65.57;;;51.70;;
20067;SDS011;10194;50.824;7.134;2023-11-21T12:19:08;61.67;;;50.20;;
20067;SDS011;10194;50.824;7.134;2023-11-21T12:21:37;59.57;;;49.27;;
20067;SDS011;10194;50.824;7.134;2023-11-21T12:24:06;64.73;;;51.13;;
20067;SDS011;10194;50.824;7.134;2023-11-21T12:26:38;63.77;;;50.70;;
20067;SDS011;10194;50.824;7.134;2023-11-21T12:29:05;66.07;;;51.73;;
20067;SDS011;10194;50.824;7.134;2023-11-21T12:31:32;59.90;;;49.57;;
20067;SDS011;10194;50.824;7.134;2023-11-21T12:34:02;63.30;;;50.50;;
20067;SDS011;10194;50.824;7.134;2023-11-21T12:36:29;72.40;;;54.90;;
20067;SDS011;10194;50.824;7.134;2023-11-21T12:38:55;64.57;;;51.20;;
20067;SDS011;10194;50.824;7.134;2023-11-21T12:41:22;60.00;;;49.33;;
20067;SDS011;10194;50.824;7.134;2023-11-21T12:43:47;59.40;;;49.17;;
20067;SDS011;10194;50.824;7.134;2023-11-21T12:46:13;59.90;;;49.47;;
20067;SDS011;10194;50.824;7.134;2023-11-21T12:48:43;65.07;;;51.77;;
20067;SDS011;10194;50.824;7.134;2023-11-21T12:51:13;65.63;;;51.97;;
20067;SDS011;10194;50.824;7.134;2023-11-21T12:53:44;68.87;;;53.20;;
20067;SDS011;10194;50.824;7.134;2023-11-21T12:56:10;66.60;;;51.87;;
20067;SDS011;10194;50.824;7.134;2023-11-21T12:58:37;63.40;;;50.57;;
20067;SDS011;10194;50.824;7.134;2023-11-21T13:01:06;66.50;;;52.27;;
20067;SDS011;10194;50.824;7.134;2023-11-21T13:03:43;66.90;;;52.03;;
20067;SDS011;10194;50.824;7.134;2023-11-21T13:06:16;66.67;;;52.23;;
20067;SDS011;10194;50.824;7.134;2023-11-21T13:08:44;72.20;;;54.60;;
20067;SDS011;10194;50.824;7.134;2023-11-21T13:11:10;59.83;;;49.30;;
20067;SDS011;10194;50.824;7.134;2023-11-21T13:13:40;59.57;;;49.13;;
20067;SDS011;10194;50.824;7.134;2023-11-21T13:16:10;65.80;;;51.57;;
20067;SDS011;10194;50.824;7.134;2023-11-21T13:18:36;66.47;;;51.97;;
20067;SDS011;10194;50.824;7.134;2023-11-21T13:21:05;59.70;;;49.20;;
20067;SDS011;10194;50.824;7.134;2023-11-21T13:23:35;62.37;;;50.37;;
20067;SDS011;10194;50.824;7.134;2023-11-21T13:26:02;60.57;;;50.80;;
20067;SDS011;10194;50.824;7.134;2023-11-21T13:28:29;60.20;;;49.70;;
20067;SDS011;10194;50.824;7.134;2023-11-21T13:31:00;62.37;;;50.33;;
20067;SDS011;10194;50.824;7.134;2023-11-21T13:33:35;59.73;;;49.20;;
20067;SDS011;10194;50.824;7.134;2023-11-21T13:36:07;62.10;;;50.33;;
20067;SDS011;10194;50.824;7.134;2023-11-21T13:38:34;60.93;;;49.80;;
20067;SDS011;10194;50.824;7.134;2023-11-21T13:41:01;60.57;;;49.60;;
20067;SDS011;10194;50.824;7.134;2023-11-21T13:43:27;59.53;;;49.33;;
20067;SDS011;10194;50.824;7.134;2023-11-21T13:45:54;68.93;;;52.90;;
20067;SDS011;10194;50.824;7.134;2023-11-21T13:48:38;59.80;;;49.20;;
20067;SDS011;10194;50.824;7.134;2023-11-21T13:51:08;62.70;;;50.40;;
20067;SDS011;10194;50.824;7.134;2023-11-21T13:53:47;66.57;;;51.90;;
20067;SDS011;10194;50.824;7.134;2023-11-21T13:56:15;60.33;;;49.23;;
20067;SDS011;10194;50.824;7.134;2023-11-21T13:58:48;58.80;;;48.53;;
20067;SDS011;10194;50.824;7.134;2023-11-21T14:01:19;63.93;;;50.77;;
20067;SDS011;10194;50.824;7.134;2023-11-21T14:04:00;61.67;;;49.77;;
20067;SDS011;10194;50.824;7.134;2023-11-21T14:06:48;66.10;;;51.50;;
20067;SDS011;10194;50.824;7.134;2023-11-21T14:09:21;61.27;;;49.67;;
20067;SDS011;10194;50.824;7.134;2023-11-21T14:11:53;59.43;;;48.93;;
20067;SDS011;10194;50.824;7.134;2023-11-21T14:14:25;59.57;;;49.03;;
20067;SDS011;10194;50.824;7.134;2023-11-21T14:16:55;66.60;;;51.83;;
20067;SDS011;10194;50.824;7.134;2023-11-21T14:19:22;60.67;;;49.30;;
20067;SDS011;10194;50.824;7.134;2023-11-21T14:21:52;59.97;;;49.07;;
20067;SDS011;10194;50.824;7.134;2023-11-21T14:24:18;62.47;;;50.20;;
20067;SDS011;10194;50.824;7.134;2023-11-21T14:26:44;60.37;;;49.30;;
20067;SDS011;10194;50.824;7.134;2023-11-21T14:29:12;66.60;;;51.83;;
20067;SDS011;10194;50.824;7.134;2023-11-21T14:31:41;62.97;;;50.40;;
20067;SDS011;10194;50.824;7.134;2023-11-21T14:34:07;62.03;;;49.97;;
20067;SDS011;10194;50.824;7.134;2023-11-21T14:36:33;67.30;;;52.50;;
20067;SDS011;10194;50.824;7.134;2023-11-21T14:39:01;62.93;;;50.37;;